Time;durP1;ratioP1;P1;durP2;ratioP2;P2;SDS_P1;SDS_P2;PMS_P1;PMS_P2;Temp;Humidity;BMP_temperature;BMP_pressure;BME280_temperature;BME280_humidity;BME280_pressure;Samples;Min_cycle;Max_cycle;Signal;HPM_P1;HPM_P2
2022/02/26 00:22:13;;;;;;;22.10;11.53;;;4.90;56.80;;;;;;4834386;29;20215;-93
2022/02/26 00:32:13;;;;;;;19.43;12.20;;;4.60;72.00;;;;;;4834168;29;20657;-92
2022/02/26 00:35:53;;;;;;;22.73;11.50;;;4.70;72.70;;;;;;4820400;29;20196;-92
2022/02/26 00:42:25;;;;;;;26.53;12.43;;;4.90;67.70;;;;;;4848721;29;20303;-93
2022/02/26 00:45:56;;;;;;;18.73;11.83;;;4.90;63.10;;;;;;4852901;29;20511;-92
2022/02/26 00:52:54;;;;;;;23.70;12.37;;;4.90;60.80;;;;;;4851945;29;20280;-92
2022/02/26 00:56:18;;;;;;;;;;;;;;;;;;;;;
2022/02/26 00:58:59;;;;;;;21.63;12.00;;;4.70;65.80;;;;;;4851186;29;20258;-93
2022/02/26 01:01:58;;;;;;;21.70;11.97;;;4.90;67.70;;;;;;4834954;29;20184;-93
2022/02/26 01:05:31;;;;;;;17.80;11.13;;;4.70;68.90;;;;;;4853723;29;20169;-93
2022/02/26 01:08:51;;;;;;;20.27;11.67;;;4.60;68.20;;;;;;4856742;29;20192;-93
2022/02/26 01:42:39;;;;;;;;;;;;;;;;;;;;;
2022/02/26 01:45:26;;;;;;;21.43;12.50;;;4.70;68.30;;;;;;4849639;29;20205;-92
2022/02/26 01:47:57;;;;;;;25.90;12.30;;;4.70;65.60;;;;;;4888854;29;20175;-91
2022/02/26 01:51:06;;;;;;;24.40;13.03;;;4.80;59.80;;;;;;4940582;29;20188;-92
2022/02/26 02:01:00;;;;;;;28.83;13.90;;;4.70;50.60;;;;;;5008584;28;20533;-92
2022/02/26 02:03:54;;;;;;;24.07;12.87;;;4.70;50.40;;;;;;5007857;28;20213;-93
2022/02/26 02:06:23;;;;;;;23.57;11.97;;;4.70;52.50;;;;;;4991314;28;20194;-92
2022/02/26 02:08:53;;;;;;;23.13;12.37;;;4.90;55.30;;;;;;4991539;28;20187;-92
2022/02/26 02:11:39;;;;;;;28.07;12.57;;;4.80;58.30;;;;;;4993034;28;20174;-93
2022/02/26 02:14:48;;;;;;;20.73;12.30;;;4.70;62.00;;;;;;4991162;28;20175;-93
2022/02/26 02:17:14;;;;;;;22.73;12.03;;;4.60;66.80;;;;;;4990277;28;20639;-93
2022/02/26 02:20:22;;;;;;;23.50;12.73;;;4.70;68.10;;;;;;4990022;28;20182;-93
2022/02/26 02:22:59;;;;;;;26.47;13.10;;;4.70;66.50;;;;;;4993049;28;20163;-93
2022/02/26 02:26:09;;;;;;;20.40;11.93;;;4.80;64.70;;;;;;4997711;28;20222;-93
2022/02/26 02:28:41;;;;;;;23.87;11.93;;;4.70;65.90;;;;;;5001187;28;20155;-92
2022/02/26 02:31:10;;;;;;;21.40;12.10;;;4.70;66.30;;;;;;4984214;28;20166;-92
2022/02/26 02:33:59;;;;;;;23.07;11.93;;;4.70;63.70;;;;;;5002695;28;20187;-93
2022/02/26 02:36:25;;;;;;;19.40;11.23;;;4.40;64.90;;;;;;4999740;28;20179;-93
2022/02/26 02:39:10;;;;;;;20.33;11.83;;;4.30;69.90;;;;;;4997331;28;20187;-93
2022/02/26 02:41:43;;;;;;;21.73;11.27;;;4.20;73.60;;;;;;4992268;28;20202;-92
2022/02/26 03:35:09;;;;;;;23.33;12.13;;;3.90;72.30;;;;;;5040535;28;20232;-92
2022/02/26 03:38:35;;;;;;;17.60;11.50;;;3.70;72.70;;;;;;5041324;28;20193;-92
2022/02/26 03:41:23;;;;;;;19.43;12.03;;;3.60;75.90;;;;;;5016812;28;20193;-92
2022/02/26 03:44:43;;;;;;;21.03;12.57;;;3.70;78.60;;;;;;5015730;28;20713;-94
2022/02/26 03:47:12;;;;;;;23.50;13.73;;;3.70;78.70;;;;;;5015101;28;20178;-93
2022/02/26 03:50:01;;;;;;;19.37;11.17;;;3.70;78.80;;;;;;5031697;28;20673;-93
2022/02/26 03:59:08;;;;;;;25.13;11.70;;;3.80;79.30;;;;;;5032828;28;20201;-93
2022/02/26 04:02:18;;;;;;;19.80;11.20;;;3.90;78.30;;;;;;5038893;28;20230;-91
2022/02/26 04:04:58;;;;;;;21.20;11.50;;;3.80;77.40;;;;;;5024722;28;20245;-90
2022/02/26 04:11:31;;;;;;;24.00;12.30;;;3.80;78.10;;;;;;5041762;28;20193;-92
2022/02/26 04:14:25;;;;;;;18.67;11.03;;;3.90;76.50;;;;;;5041754;28;20194;-92
2022/02/26 04:21:29;;;;;;;;;;;;;;;;;;;;;
2022/02/26 04:24:52;;;;;;;19.37;11.77;;;3.80;57.10;;;;;;4982593;28;20184;-92
2022/02/26 04:27:30;;;;;;;26.40;12.77;;;3.40;62.40;;;;;;5041026;28;20194;-92
2022/02/26 04:30:01;;;;;;;18.47;11.67;;;3.30;71.20;;;;;;5023859;28;20162;-93
2022/02/26 04:32:33;;;;;;;22.37;11.73;;;3.40;72.60;;;;;;5022541;28;20226;-92
2022/02/26 04:35:12;;;;;;;19.10;12.77;;;3.50;70.80;;;;;;5020869;28;20241;-92
2022/02/26 04:38:29;;;;;;;;;;;;;;;;;;;;;
2022/02/26 04:51:28;;;;;;;21.40;12.13;;;3.20;82.80;;;;;;4903103;29;20246;-93
2022/02/26 05:31:45;;;;;;;18.07;10.40;;;3.10;80.80;;;;;;4926851;29;20181;-92
2022/02/26 05:38:07;;;;;;;16.60;10.50;;;3.20;84.70;;;;;;4934164;29;20208;-92
2022/02/26 06:08:28;;;;;;;20.37;11.53;;;2.90;85.00;;;;;;4869760;29;20191;-93
2022/02/26 06:11:19;;;;;;;18.83;10.47;;;2.90;87.50;;;;;;4855087;29;20203;-93
2022/02/26 06:25:13;;;;;;;;;;;;;;;;;;;;;
2022/02/26 06:28:22;;;;;;;21.57;11.30;;;3.40;87.10;;;;;;4855919;29;20252;-92
2022/02/26 06:30:54;;;;;;;24.93;11.73;;;3.50;86.00;;;;;;4882773;29;20197;-93
2022/02/26 06:33:23;;;;;;;20.43;12.70;;;3.70;84.00;;;;;;4868030;29;20235;-92
2022/02/26 06:39:14;;;;;;;20.10;12.30;;;3.50;83.00;;;;;;4959259;29;20210;-92
2022/02/26 06:42:22;;;;;;;19.83;11.20;;;3.50;82.20;;;;;;4957533;29;20295;-89
2022/02/26 06:45:16;;;;;;;24.73;12.03;;;3.30;81.50;;;;;;5001118;28;20183;-93
2022/02/26 06:47:46;;;;;;;21.53;10.17;;;3.20;82.70;;;;;;5012117;28;20205;-92
2022/02/26 06:50:13;;;;;;;19.20;10.90;;;3.20;83.40;;;;;;5026210;28;20182;-91
2022/02/26 06:59:58;;;;;;;27.33;11.07;;;3.20;86.90;;;;;;4973511;29;20143;-92
2022/02/26 07:02:56;;;;;;;14.63;10.17;;;3.30;87.10;;;;;;4973505;29;20208;-93
2022/02/26 07:05:43;;;;;;;18.13;10.97;;;3.40;87.20;;;;;;4972382;28;20213;-93
2022/02/26 07:08:28;;;;;;;20.93;10.93;;;3.50;86.40;;;;;;4957575;29;20172;-91
2022/02/26 07:14:40;;;;;;;21.00;11.33;;;3.70;84.00;;;;;;4972322;29;20216;-93
2022/02/26 07:17:15;;;;;;;18.27;11.03;;;3.80;81.40;;;;;;4965644;29;20252;-92
2022/02/26 07:19:55;;;;;;;21.80;10.37;;;3.70;80.40;;;;;;4956307;29;20215;-93
2022/02/26 07:22:54;;;;;;;20.63;11.17;;;3.90;79.80;;;;;;4971462;28;20188;-93
2022/02/26 07:25:21;;;;;;;19.53;10.90;;;3.80;77.60;;;;;;4988716;28;20190;-92
2022/02/26 07:27:51;;;;;;;19.23;10.77;;;3.80;78.00;;;;;;5003832;28;20213;-92
2022/02/26 07:30:17;;;;;;;17.77;11.00;;;3.80;78.20;;;;;;4985450;28;20187;-93
2022/02/26 07:33:14;;;;;;;21.60;11.33;;;4.00;78.10;;;;;;5023085;28;20225;-93
2022/02/26 07:35:42;;;;;;;24.30;12.13;;;4.20;72.50;;;;;;5005933;28;20209;-92
2022/02/26 07:38:16;;;;;;;18.47;12.30;;;4.30;68.30;;;;;;4974672;28;20237;-92
2022/02/26 07:40:48;;;;;;;20.10;11.33;;;4.30;64.90;;;;;;5006997;28;20178;-91
2022/02/26 07:43:44;;;;;;;19.60;10.97;;;4.40;62.80;;;;;;5004997;28;20190;-91
2022/02/26 07:46:13;;;;;;;21.80;12.10;;;4.40;60.30;;;;;;5009749;28;20228;-91
2022/02/26 07:48:41;;;;;;;19.10;10.73;;;4.40;60.40;;;;;;5004742;28;20253;-91
2022/02/26 07:51:07;;;;;;;18.13;11.10;;;4.40;60.90;;;;;;5006105;28;20198;-91
2022/02/26 07:53:45;;;;;;;21.10;12.57;;;4.50;62.20;;;;;;5002782;28;20588;-92
2022/02/26 07:56:25;;;;;;;17.70;11.30;;;4.60;61.50;;;;;;5006677;28;20163;-91
2022/02/26 07:59:20;;;;;;;20.00;11.23;;;4.80;59.60;;;;;;5008472;28;20186;-91
2022/02/26 08:01:50;;;;;;;18.20;10.90;;;4.90;57.50;;;;;;5032637;28;20174;-92
2022/02/26 08:11:04;;;;;;;16.37;11.90;;;5.30;49.50;;;;;;5038199;28;20181;-91
2022/02/26 08:17:07;;;;;;;20.33;11.83;;;5.40;44.40;;;;;;5034514;28;20162;-91
2022/02/26 08:23:35;;;;;;;;;;;;;;;;;;;;;
2022/02/26 08:26:14;;;;;;;25.80;13.10;;;6.00;19.10;;;;;;5041385;28;20170;-90
2022/02/26 08:28:59;;;;;;;25.07;12.43;;;6.10;13.30;;;;;;5010811;28;20189;-92
2022/02/26 08:34:48;;;;;;;26.10;12.57;;;6.10;21.70;;;;;;5040412;28;20177;-92
2022/02/26 08:37:15;;;;;;;20.80;13.17;;;6.20;23.70;;;;;;5022416;28;20261;-92
2022/02/26 08:39:45;;;;;;;22.10;11.53;;;6.30;23.30;;;;;;5037637;28;20158;-91
2022/02/26 08:45:37;;;;;;;24.63;11.37;;;6.30;27.90;;;;;;5040777;28;20197;-89
2022/02/26 08:48:45;;;;;;;21.77;11.30;;;6.50;25.80;;;;;;5039136;28;20258;-89
2022/02/26 08:51:17;;;;;;;25.70;10.43;;;6.60;21.20;;;;;;5037374;28;20266;-90
2022/02/26 08:53:59;;;;;;;25.33;10.87;;;6.60;18.40;;;;;;5017961;28;20209;-90
2022/02/26 09:01:08;;;;;;;;;;;;;;;;;;;;;
2022/02/26 09:03:40;;;;;;;20.50;10.00;;;7.00;10.90;;;;;;5018806;28;20273;-91
2022/02/26 09:09:42;;;;;;;17.27;8.03;;;6.80;23.60;;;;;;5026771;28;20622;-91
2022/02/26 09:12:32;;;;;;;20.33;7.50;;;7.00;27.60;;;;;;5017564;28;20297;-91
2022/02/26 09:15:03;;;;;;;21.03;7.13;;;7.00;25.50;;;;;;5022053;28;20209;-91
2022/02/26 09:17:55;;;;;;;19.03;6.90;;;7.30;23.10;;;;;;5006634;28;20189;-90
2022/02/26 09:31:44;;;;;;;;;;;;;;;;;;;;;
2022/02/26 09:37:31;;;;;;;23.60;11.60;;;7.40;1.00;;;;;;4901339;29;20217;-91
2022/02/26 09:39:59;;;;;;;24.90;10.80;;;7.10;1.00;;;;;;4897483;29;20187;-93
2022/02/26 09:42:31;;;;;;;24.43;10.37;;;7.20;1.00;;;;;;4886097;29;20187;-93
2022/02/26 09:45:05;;;;;;;23.60;12.10;;;7.00;1.00;;;;;;4935790;29;20188;-91
2022/02/26 09:47:38;;;;;;;26.23;11.30;;;7.00;1.00;;;;;;4997143;28;20190;-91
2022/02/26 09:50:34;;;;;;;23.87;10.60;;;7.10;1.00;;;;;;5008601;28;20202;-93
2022/02/26 09:53:01;;;;;;;25.90;10.03;;;7.20;1.00;;;;;;5004399;28;20756;-91
2022/02/26 09:56:17;;;;;;;23.97;11.10;;;7.30;1.00;;;;;;5003821;28;20201;-91
2022/02/26 09:58:55;;;;;;;26.47;10.27;;;7.50;1.00;;;;;;5005733;28;20182;-91
2022/02/26 10:01:37;;;;;;;19.67;10.27;;;7.70;1.00;;;;;;5010020;28;20301;-92
2022/02/26 10:04:11;;;;;;;21.53;9.97;;;7.80;1.00;;;;;;5009997;28;20193;-89
2022/02/26 10:06:46;;;;;;;20.47;9.23;;;7.90;1.00;;;;;;5014799;28;20209;-90
2022/02/26 10:09:20;;;;;;;17.70;8.87;;;7.80;1.00;;;;;;5005615;28;20276;-91
2022/02/26 10:12:03;;;;;;;16.87;8.97;;;7.70;1.00;;;;;;5004683;28;20218;-91
2022/02/26 10:14:35;;;;;;;23.13;10.10;;;7.90;1.00;;;;;;4989442;28;20221;-89
2022/02/26 10:17:04;;;;;;;19.90;8.97;;;7.90;1.00;;;;;;5009245;28;20175;-90
2022/02/26 10:19:34;;;;;;;25.07;12.10;;;8.10;1.00;;;;;;5009241;28;20192;-91
2022/02/26 10:22:04;;;;;;;22.63;9.27;;;8.30;1.00;;;;;;5010369;28;20209;-90
2022/02/26 10:24:37;;;;;;;17.70;8.70;;;8.50;1.00;;;;;;5027721;28;20178;-90
2022/02/26 10:27:13;;;;;;;23.67;9.10;;;8.30;1.00;;;;;;5011140;28;20650;-91
2022/02/26 10:29:40;;;;;;;16.97;7.60;;;8.20;1.00;;;;;;5008390;28;20245;-91
2022/02/26 10:32:20;;;;;;;21.53;8.87;;;8.10;1.00;;;;;;5003637;28;20210;-91
2022/02/26 10:34:54;;;;;;;18.07;8.10;;;8.30;1.00;;;;;;5003695;28;20190;-91
2022/02/26 10:37:24;;;;;;;21.07;8.87;;;8.40;1.00;;;;;;5003576;28;20194;-91
2022/02/26 10:40:12;;;;;;;18.00;9.00;;;8.50;1.00;;;;;;5026787;28;20162;-91
2022/02/26 10:42:45;;;;;;;14.67;7.90;;;8.20;1.00;;;;;;4987651;28;20197;-91
2022/02/26 10:45:22;;;;;;;19.33;7.30;;;8.00;1.00;;;;;;4997051;28;20201;-90
2022/02/26 10:47:48;;;;;;;17.37;7.43;;;7.90;1.00;;;;;;5010493;28;20177;-91
2022/02/26 10:50:25;;;;;;;17.73;7.83;;;7.80;1.00;;;;;;5033460;28;20186;-90
2022/02/26 10:52:59;;;;;;;17.67;8.13;;;8.20;1.00;;;;;;5006855;28;20220;-90
2022/02/26 10:56:01;;;;;;;17.60;6.93;;;8.50;1.00;;;;;;5007591;28;20202;-90
2022/02/26 10:58:28;;;;;;;17.43;8.07;;;8.20;1.00;;;;;;5004148;28;20198;-91
2022/02/26 11:01:12;;;;;;;18.60;6.83;;;8.30;1.00;;;;;;5004381;28;20244;-91
2022/02/26 11:03:40;;;;;;;18.97;6.60;;;8.20;1.00;;;;;;5008450;28;20306;-91
2022/02/26 11:06:12;;;;;;;15.07;6.37;;;8.60;1.00;;;;;;5007050;28;20670;-91
2022/02/26 11:08:39;;;;;;;15.67;7.47;;;8.60;1.00;;;;;;5008638;28;20198;-92
2022/02/26 11:11:07;;;;;;;18.73;7.67;;;8.60;1.00;;;;;;5024539;28;20193;-91
2022/02/26 11:13:38;;;;;;;16.93;7.27;;;8.70;99.90;;;;;;5008792;28;20242;-91
2022/02/26 11:16:05;;;;;;;18.90;7.30;;;8.90;99.90;;;;;;5005531;28;20206;-92
2022/02/26 11:18:43;;;;;;;12.50;6.67;;;9.10;99.90;;;;;;5004892;28;20206;-91
2022/02/26 11:21:32;;;;;;;13.00;7.00;;;9.20;99.90;;;;;;5005017;28;20197;-91
2022/02/26 11:23:58;;;;;;;17.50;6.27;;;8.80;99.90;;;;;;5006614;28;20272;-92
2022/02/26 11:26:25;;;;;;;16.73;6.50;;;9.00;99.90;;;;;;4987493;28;20240;-91
2022/02/26 11:28:59;;;;;;;18.57;7.33;;;9.00;32.20;;;;;;4988251;28;20190;-92
2022/02/26 11:31:47;;;;;;;12.87;6.93;;;9.00;99.90;;;;;;5003929;28;20163;-91
2022/02/26 11:34:25;;;;;;;16.20;6.93;;;9.00;99.90;;;;;;5010280;28;20251;-91
2022/02/26 11:36:58;;;;;;;17.70;8.00;;;9.10;99.90;;;;;;5022903;28;20163;-90
2022/02/26 11:40:12;;;;;;;15.57;7.57;;;9.40;12.00;;;;;;5006142;28;20182;-91
2022/02/26 11:42:48;;;;;;;15.40;6.90;;;9.80;1.00;;;;;;5008683;28;20193;-91
2022/02/26 11:45:34;;;;;;;14.17;6.67;;;9.80;1.00;;;;;;5009636;28;20204;-89
2022/02/26 11:48:08;;;;;;;17.83;7.13;;;10.00;99.90;;;;;;4991088;28;20225;-92
2022/02/26 11:50:41;;;;;;;13.63;7.00;;;9.80;99.90;;;;;;5008235;28;20197;-91
2022/02/26 11:53:15;;;;;;;14.17;5.60;;;9.50;78.60;;;;;;4991059;28;20249;-91
2022/02/26 11:55:55;;;;;;;13.13;5.63;;;9.40;1.00;;;;;;5007533;28;20197;-90
2022/02/26 11:58:33;;;;;;;12.80;5.83;;;9.50;1.00;;;;;;5007307;28;20329;-90
2022/02/26 12:01:17;;;;;;;9.20;4.63;;;9.50;99.90;;;;;;5022968;28;20582;-88
2022/02/26 12:03:52;;;;;;;11.90;5.47;;;9.30;99.90;;;;;;5006315;28;20182;-90
2022/02/26 12:06:21;;;;;;;10.57;4.70;;;9.20;1.00;;;;;;5025991;28;20261;-89
2022/02/26 12:08:58;;;;;;;9.43;4.67;;;9.30;1.00;;;;;;5013614;28;20206;-89
2022/02/26 12:11:44;;;;;;;13.67;4.57;;;9.20;99.90;;;;;;5006711;28;20181;-89
2022/02/26 12:14:30;;;;;;;10.53;2.70;;;9.30;1.00;;;;;;4992334;28;20265;-91
2022/02/26 12:17:08;;;;;;;9.13;3.00;;;9.00;72.40;;;;;;5006758;28;20190;-90
2022/02/26 12:19:47;;;;;;;7.97;3.17;;;9.10;99.90;;;;;;5007317;28;20268;-89
2022/02/26 12:22:13;;;;;;;8.97;3.37;;;9.40;99.90;;;;;;5009417;28;20178;-89
2022/02/26 12:24:53;;;;;;;7.37;3.20;;;9.70;99.90;;;;;;5008650;28;20517;-90
2022/02/26 12:27:35;;;;;;;8.20;3.03;;;9.70;99.90;;;;;;5007620;28;20273;-89
2022/02/26 12:30:15;;;;;;;5.77;3.13;;;10.00;99.90;;;;;;5006601;28;20182;-89
2022/02/26 12:33:04;;;;;;;10.57;3.70;;;10.10;1.00;;;;;;5006570;28;20218;-89
2022/02/26 12:35:34;;;;;;;10.80;3.57;;;10.30;1.00;;;;;;5007279;28;20219;-89
2022/02/26 12:38:24;;;;;;;8.73;3.90;;;10.40;1.00;;;;;;5025609;28;20190;-88
2022/02/26 12:40:56;;;;;;;11.80;3.43;;;10.00;1.00;;;;;;5010934;28;20216;-89
2022/02/26 12:43:30;;;;;;;10.67;4.20;;;9.70;99.90;;;;;;5025894;28;20178;-89
2022/02/26 12:46:20;;;;;;;9.03;3.67;;;9.50;1.00;;;;;;5007180;28;20759;-88
2022/02/26 12:48:49;;;;;;;11.97;3.87;;;9.40;99.90;;;;;;4989843;28;20218;-90
2022/02/26 12:51:39;;;;;;;8.27;3.53;;;9.40;1.00;;;;;;5006114;28;20183;-91
2022/02/26 12:54:04;;;;;;;7.90;3.60;;;9.10;99.90;;;;;;5007187;28;20186;-90
2022/02/26 12:56:35;;;;;;;7.10;3.17;;;9.10;1.00;;;;;;5022208;28;20238;-89
2022/02/26 12:59:40;;;;;;;9.07;3.10;;;9.30;81.80;;;;;;5006122;28;20642;-90
2022/02/26 13:02:14;;;;;;;7.33;2.93;;;9.40;99.90;;;;;;5025780;28;20162;-89
2022/02/26 13:04:47;;;;;;;7.67;3.50;;;9.60;99.90;;;;;;5003756;28;20241;-90
2022/02/26 13:07:18;;;;;;;10.90;3.80;;;9.80;99.90;;;;;;5008429;28;20179;-88
2022/02/26 13:09:52;;;;;;;7.70;3.33;;;10.00;99.90;;;;;;5022840;28;20259;-89
2022/02/26 13:12:21;;;;;;;6.50;2.60;;;10.30;1.00;;;;;;5025360;28;20205;-90
2022/02/26 13:15:23;;;;;;;6.60;2.70;;;10.40;1.00;;;;;;5009307;28;20194;-90
2022/02/26 13:17:52;;;;;;;8.40;3.13;;;10.50;99.90;;;;;;4934088;29;20184;-89
2022/02/26 13:20:23;;;;;;;8.00;2.67;;;10.50;1.00;;;;;;5001919;28;20193;-88
2022/02/26 13:22:59;;;;;;;9.13;3.40;;;10.70;1.00;;;;;;5037067;28;20171;-91
2022/02/26 13:25:46;;;;;;;7.87;3.20;;;10.90;99.90;;;;;;5002204;28;20183;-87
2022/02/26 13:28:15;;;;;;;7.30;2.60;;;10.90;99.90;;;;;;5012538;28;20183;-89
2022/02/26 13:30:59;;;;;;;4.87;2.53;;;10.80;99.90;;;;;;5018959;28;20202;-89
2022/02/26 13:33:34;;;;;;;6.17;2.30;;;11.00;99.90;;;;;;5034553;28;20229;-90
2022/02/26 13:36:16;;;;;;;7.63;2.97;;;11.00;99.90;;;;;;5016310;28;20218;-93
2022/02/26 13:39:11;;;;;;;6.33;2.03;;;10.50;99.90;;;;;;5019022;28;20182;-89
2022/02/26 13:42:10;;;;;;;6.33;2.43;;;10.50;99.90;;;;;;5032882;28;20202;-87
2022/02/26 13:44:57;;;;;;;5.73;1.93;;;10.60;99.90;;;;;;5036162;28;20271;-89
2022/02/26 13:47:30;;;;;;;3.40;1.60;;;10.70;99.90;;;;;;5017014;28;20184;-89
2022/02/26 13:50:02;;;;;;;4.77;1.80;;;10.40;99.90;;;;;;5019478;28;20174;-90
2022/02/26 13:52:30;;;;;;;5.07;2.20;;;10.20;99.90;;;;;;5040895;23;20312;-89
2022/02/26 13:55:35;;;;;;;7.93;2.60;;;10.20;99.90;;;;;;5054876;28;20223;-89
2022/02/26 13:58:02;;;;;;;6.30;1.97;;;10.60;99.90;;;;;;5036352;28;20258;-88
2022/02/26 14:01:09;;;;;;;8.00;2.83;;;10.90;99.90;;;;;;5053257;28;20179;-89
2022/02/26 14:04:33;;;;;;;6.63;2.27;;;10.90;99.90;;;;;;5035823;28;20185;-89
2022/02/26 14:07:04;;;;;;;5.83;1.77;;;10.60;99.90;;;;;;5017652;28;20177;-90
2022/02/26 14:09:43;;;;;;;7.07;2.17;;;10.30;99.90;;;;;;5034676;28;20174;-91
2022/02/26 14:12:42;;;;;;;5.13;1.80;;;10.30;99.90;;;;;;5033697;28;20657;-91
2022/02/26 14:15:34;;;;;;;5.10;1.70;;;10.70;99.90;;;;;;5015202;28;20198;-89
2022/02/26 14:18:06;;;;;;;8.10;2.10;;;10.50;99.90;;;;;;4995366;28;20168;-90
2022/02/26 14:21:00;;;;;;;7.53;2.23;;;10.20;99.90;;;;;;4978297;28;20259;-88
2022/02/26 14:24:01;;;;;;;8.70;2.30;;;10.40;99.90;;;;;;4993836;28;20244;-88
2022/02/26 14:26:34;;;;;;;5.63;2.10;;;10.60;99.90;;;;;;4976088;28;20187;-89
2022/02/26 14:29:08;;;;;;;6.77;2.30;;;10.40;99.90;;;;;;4996267;28;20207;-88
2022/02/26 14:31:41;;;;;;;8.40;2.67;;;10.30;99.90;;;;;;4978566;28;20183;-87
2022/02/26 14:34:56;;;;;;;9.03;2.70;;;10.50;99.90;;;;;;4994818;28;20160;-87
2022/02/26 14:37:28;;;;;;;8.27;2.30;;;10.80;99.90;;;;;;4978762;28;20183;-89
2022/02/26 14:40:04;;;;;;;8.87;2.70;;;11.00;99.90;;;;;;4994027;28;20209;-89
2022/02/26 14:42:33;;;;;;;7.13;2.00;;;11.00;99.90;;;;;;4994449;28;20251;-89
2022/02/26 14:45:16;;;;;;;5.67;2.13;;;10.90;99.90;;;;;;4977073;28;20194;-92
2022/02/26 14:47:49;;;;;;;8.43;2.90;;;10.60;99.90;;;;;;4981451;28;20191;-93
2022/02/26 14:50:25;;;;;;;5.47;1.80;;;10.60;99.90;;;;;;5016260;28;20186;-90
2022/02/26 14:53:04;;;;;;;7.70;2.50;;;10.40;99.90;;;;;;5015948;28;20225;-90
2022/02/26 14:55:57;;;;;;;9.57;2.43;;;10.30;99.90;;;;;;5018714;28;20178;-91
2022/02/26 14:58:35;;;;;;;5.07;1.90;;;10.30;99.90;;;;;;5019337;28;20178;-93
2022/02/26 15:01:10;;;;;;;7.07;2.33;;;10.40;99.90;;;;;;5012368;28;20186;-91
2022/02/26 15:03:47;;;;;;;6.17;1.70;;;10.70;99.90;;;;;;5032472;28;20708;-91
2022/02/26 15:06:30;;;;;;;7.23;2.53;;;10.70;99.90;;;;;;5014725;28;20221;-90
2022/02/26 15:09:27;;;;;;;7.40;2.93;;;10.90;99.90;;;;;;5010141;28;20186;-90
2022/02/26 15:11:54;;;;;;;5.33;2.43;;;11.30;67.10;;;;;;5014136;28;20674;-89
2022/02/26 15:14:31;;;;;;;9.30;2.37;;;12.40;1.00;;;;;;5015870;28;20186;-90
2022/02/26 15:17:30;;;;;;;6.03;2.60;;;13.50;1.00;;;;;;5016506;28;20178;-92
2022/02/26 15:20:03;;;;;;;5.83;2.30;;;14.40;1.00;;;;;;5016243;28;20178;-91
2022/02/26 15:22:59;;;;;;;5.20;1.90;;;14.80;1.00;;;;;;5008549;28;20667;-90
2022/02/26 15:25:49;;;;;;;7.80;2.30;;;14.80;1.00;;;;;;5017670;28;20181;-90
2022/02/26 15:28:31;;;;;;;6.23;2.53;;;14.80;1.00;;;;;;5015089;28;20183;-88
2022/02/26 15:31:33;;;;;;;6.23;2.50;;;14.70;1.00;;;;;;5019954;28;20160;-89
2022/02/26 15:34:43;;;;;;;7.53;2.23;;;15.20;1.00;;;;;;5033290;28;20194;-89
2022/02/26 15:37:26;;;;;;;5.47;2.13;;;15.20;1.00;;;;;;5021300;28;20184;-90
2022/02/26 15:40:15;;;;;;;4.93;2.40;;;14.90;1.00;;;;;;5019843;28;20185;-89
2022/02/26 15:42:52;;;;;;;8.53;2.30;;;14.90;1.00;;;;;;5037430;28;20219;-90
2022/02/26 15:45:40;;;;;;;7.80;2.40;;;15.50;1.00;;;;;;5039073;28;20193;-90
2022/02/26 15:48:10;;;;;;;7.97;2.67;;;16.00;1.00;;;;;;5005609;28;20173;-90
2022/02/26 15:50:59;;;;;;;7.53;2.90;;;15.90;1.00;;;;;;5024138;28;20181;-90
2022/02/26 15:53:42;;;;;;;10.07;2.80;;;16.50;1.00;;;;;;5022701;28;20252;-90
2022/02/26 15:56:47;;;;;;;6.60;2.50;;;17.20;1.00;;;;;;5006260;28;20186;-90
2022/02/26 15:59:16;;;;;;;7.53;3.23;;;17.10;1.00;;;;;;5021319;28;20182;-90
2022/02/26 16:02:20;;;;;;;6.77;2.97;;;17.00;1.00;;;;;;5020745;28;20182;-91
2022/02/26 16:05:06;;;;;;;9.40;3.00;;;17.00;1.00;;;;;;5039182;28;20274;-91
2022/02/26 16:07:36;;;;;;;7.27;2.80;;;17.90;1.00;;;;;;5003727;28;20198;-92
2022/02/26 16:10:10;;;;;;;10.10;3.40;;;17.80;1.00;;;;;;5019107;28;20550;-91
2022/02/26 16:12:43;;;;;;;7.13;3.37;;;16.60;1.00;;;;;;5020774;28;20261;-91
2022/02/26 16:15:23;;;;;;;8.37;2.87;;;16.40;1.00;;;;;;5006316;28;20177;-88
2022/02/26 16:18:07;;;;;;;11.83;3.33;;;15.40;1.00;;;;;;5021623;28;20197;-90
2022/02/26 16:21:02;;;;;;;10.70;4.20;;;14.70;1.00;;;;;;5037267;28;20200;-90
2022/02/26 16:23:32;;;;;;;9.27;3.43;;;14.70;1.00;;;;;;5001978;28;20200;-90
2022/02/26 16:26:00;;;;;;;10.03;3.00;;;15.10;1.00;;;;;;5033686;28;20217;-90
2022/02/26 16:28:49;;;;;;;8.07;3.03;;;14.90;1.00;;;;;;5019721;28;20266;-91
2022/02/26 16:31:18;;;;;;;8.00;3.30;;;15.20;1.00;;;;;;5019730;28;20185;-89
2022/02/26 16:34:01;;;;;;;7.23;3.50;;;14.90;1.00;;;;;;5019346;28;20213;-91
2022/02/26 16:36:49;;;;;;;10.10;3.13;;;14.90;1.00;;;;;;5037348;28;20196;-89
2022/02/26 16:42:39;;;;;;;8.63;3.70;;;14.20;1.00;;;;;;5036010;28;20168;-88
2022/02/26 16:45:15;;;;;;;10.43;3.53;;;13.50;1.00;;;;;;5018536;28;20171;-90
2022/02/26 16:47:43;;;;;;;7.50;3.23;;;13.10;1.00;;;;;;5036615;28;20182;-90
2022/02/26 16:50:14;;;;;;;9.77;3.40;;;13.00;1.00;;;;;;5036972;28;20203;-91
2022/02/26 16:53:01;;;;;;;7.63;3.83;;;12.90;1.00;;;;;;5037830;28;20229;-90
2022/02/26 16:55:46;;;;;;;10.60;3.73;;;13.00;1.00;;;;;;5019090;28;20177;-92
2022/02/26 16:58:17;;;;;;;9.83;3.73;;;13.20;1.00;;;;;;5036489;28;20183;-91
2022/02/26 17:00:47;;;;;;;7.47;3.10;;;13.00;1.00;;;;;;5004225;28;20170;-92
2022/02/26 17:03:22;;;;;;;10.40;3.50;;;12.40;1.00;;;;;;5020863;28;20170;-91
2022/02/26 17:05:58;;;;;;;9.93;3.57;;;12.00;1.00;;;;;;5038560;28;20367;-90
2022/02/26 17:08:30;;;;;;;11.73;3.83;;;11.30;75.80;;;;;;5019114;28;20189;-91
2022/02/26 17:11:12;;;;;;;6.57;3.00;;;11.00;99.90;;;;;;5021395;28;20178;-91
2022/02/26 17:13:41;;;;;;;6.80;3.17;;;10.50;99.90;;;;;;5038588;28;20214;-90
2022/02/26 17:16:09;;;;;;;11.03;3.90;;;10.30;1.00;;;;;;5038190;28;20218;-90
2022/02/26 17:18:39;;;;;;;7.23;3.10;;;9.90;1.00;;;;;;5017472;28;20177;-91
2022/02/26 17:21:18;;;;;;;8.47;3.73;;;9.80;99.90;;;;;;4986386;28;20186;-91
2022/02/26 17:24:08;;;;;;;10.43;4.07;;;9.80;99.90;;;;;;5019582;28;20241;-91
2022/02/26 17:27:16;;;;;;;10.90;3.90;;;9.70;99.90;;;;;;5036380;28;20188;-92
2022/02/26 17:29:48;;;;;;;9.00;4.10;;;9.80;99.90;;;;;;5019285;28;20213;-90
2022/02/26 17:32:18;;;;;;;11.17;4.40;;;9.70;99.90;;;;;;5019714;28;20384;-90
2022/02/26 17:35:02;;;;;;;11.33;3.83;;;9.60;1.00;;;;;;5016140;28;20189;-91
2022/02/26 17:37:34;;;;;;;8.67;3.90;;;9.00;1.00;;;;;;5025217;28;20258;-90
2022/02/26 17:39:59;;;;;;;5.97;3.53;;;8.80;99.90;;;;;;5005316;28;20183;-91
2022/02/26 17:42:43;;;;;;;7.63;3.50;;;8.50;1.00;;;;;;5003426;28;20182;-90
2022/02/26 17:45:09;;;;;;;9.67;4.47;;;8.50;1.00;;;;;;5002789;28;20635;-91
2022/02/26 17:47:36;;;;;;;8.53;3.80;;;8.60;98.00;;;;;;5003727;28;20181;-90
2022/02/26 17:50:11;;;;;;;8.67;4.20;;;8.40;1.00;;;;;;5004771;28;20190;-91
2022/02/26 17:52:38;;;;;;;13.90;4.53;;;8.40;1.00;;;;;;5003862;28;20225;-90
2022/02/26 17:55:04;;;;;;;11.87;4.60;;;8.40;1.00;;;;;;5004216;28;20201;-90
2022/02/26 17:57:37;;;;;;;12.43;4.27;;;8.40;13.90;;;;;;5001962;28;20189;-91
2022/02/26 18:00:16;;;;;;;12.03;4.27;;;8.30;99.90;;;;;;5003276;28;20198;-91
2022/02/26 18:02:44;;;;;;;9.53;4.60;;;8.30;99.90;;;;;;5004804;28;20182;-91
2022/02/26 18:05:11;;;;;;;9.87;3.70;;;8.10;1.00;;;;;;5001887;28;20194;-91
2022/02/26 18:07:58;;;;;;;8.20;3.87;;;8.00;1.00;;;;;;5003842;28;20187;-91
2022/02/26 18:10:56;;;;;;;7.73;4.40;;;8.00;1.00;;;;;;5003443;28;20190;-90
2022/02/26 18:13:33;;;;;;;8.90;5.13;;;8.10;1.00;;;;;;5003285;28;20305;-91
2022/02/26 18:15:59;;;;;;;9.70;4.03;;;8.10;1.00;;;;;;5001869;28;20190;-90
2022/02/26 18:18:57;;;;;;;9.57;4.27;;;8.20;1.00;;;;;;5004387;28;20186;-89
2022/02/26 18:21:28;;;;;;;10.07;4.57;;;8.20;1.00;;;;;;4987931;28;20210;-90
2022/02/26 18:23:55;;;;;;;9.53;4.50;;;8.10;1.00;;;;;;5004979;28;20189;-90
2022/02/26 18:26:40;;;;;;;14.40;5.10;;;8.20;99.90;;;;;;4989078;28;20186;-90
2022/02/26 18:29:17;;;;;;;11.07;4.87;;;7.90;99.90;;;;;;5002886;28;20186;-90
2022/02/26 18:31:54;;;;;;;10.60;5.33;;;8.00;99.90;;;;;;5003565;28;20182;-91
2022/02/26 18:34:25;;;;;;;10.97;5.00;;;8.00;99.90;;;;;;5019922;28;20232;-92
2022/02/26 18:36:57;;;;;;;10.40;5.60;;;8.10;99.90;;;;;;4989518;28;20183;-90
2022/02/26 18:39:39;;;;;;;9.90;4.90;;;8.10;1.00;;;;;;5006950;28;20190;-91
2022/02/26 18:42:09;;;;;;;9.43;4.93;;;7.90;99.90;;;;;;5022635;28;20229;-89
2022/02/26 18:44:40;;;;;;;11.47;5.87;;;8.00;99.90;;;;;;5006202;28;20186;-90
2022/02/26 18:47:18;;;;;;;12.90;5.13;;;8.00;99.90;;;;;;5005411;28;20194;-91
2022/02/26 18:49:51;;;;;;;13.03;5.37;;;8.00;99.90;;;;;;5003722;28;20182;-90
2022/02/26 18:52:19;;;;;;;12.27;6.10;;;7.70;47.00;;;;;;5018437;28;20198;-90
2022/02/26 18:54:56;;;;;;;12.93;5.70;;;7.70;1.00;;;;;;5002689;28;20198;-90
2022/02/26 18:57:55;;;;;;;13.37;5.77;;;7.60;1.00;;;;;;5029253;28;20218;-89
2022/02/26 19:00:27;;;;;;;13.13;6.03;;;7.60;1.00;;;;;;5012170;28;20253;-92